Time;durP1;ratioP1;P1;durP2;ratioP2;P2;SDS_P1;SDS_P2;PMS_P1;PMS_P2;Temp;Humidity;BMP_temperature;BMP_pressure;BME280_temperature;BME280_humidity;BME280_pressure;Samples;Min_cycle;Max_cycle;Signal;HPM_P1;HPM_P2
2022/09/19 00:01:37;;;;;;;;;;;;;;;15.06;51.71;99976.72;5309881;32;32924;-65
2022/09/19 00:04:39;;;;;;;;;;;;;;;14.29;53.52;99970.06;5333585;32;33384;-64
2022/09/19 00:07:42;;;;;;;;;;;;;;;14.07;54.84;99970.50;5331914;32;32867;-66
2022/09/19 00:10:44;;;;;;;;;;;;;;;13.95;55.26;99971.25;5325231;32;44477;-63
2022/09/19 00:13:48;;;;;;;;;;;;;;;13.96;55.00;99968.50;5343311;32;34129;-65
2022/09/19 00:16:53;;;;;;;;;;;;;;;13.55;55.50;99963.03;5301559;32;34420;-66
2022/09/19 00:19:55;;;;;;;;;;;;;;;13.50;55.97;99963.28;5342093;32;33826;-67
2022/09/19 00:26:19;;;;;;;;;;;;;;;13.37;56.91;99956.16;5321975;32;44643;-64
2022/09/19 00:29:21;;;;;;;;;;;;;;;13.54;55.73;99946.34;5343041;32;34873;-68
2022/09/19 00:32:23;;;;;;;;;;;;;;;14.23;54.52;99938.72;5309795;32;33141;-68
2022/09/19 00:35:25;;;;;;;;;;;;;;;13.27;56.37;99934.75;5341424;32;33838;-64
2022/09/19 00:38:27;;;;;;;;;;;;;;;13.40;56.56;99933.09;5324705;32;34142;-64
2022/09/19 00:41:29;;;;;;;;;;;;;;;14.10;54.31;99912.19;5326039;32;33441;-67
2022/09/19 00:44:31;;;;;;;;;;;;;;;14.35;53.77;99917.66;5326930;32;34231;-67
2022/09/19 00:47:37;;;;;;;;;;;;;;;13.89;55.67;99922.25;5323961;32;33033;-68
2022/09/19 00:50:39;;;;;;;;;;;;;;;14.35;52.84;99915.00;5341285;32;32971;-66
2022/09/19 00:53:41;;;;;;;;;;;;;;;14.18;54.20;99917.03;5311024;32;33087;-67
2022/09/19 00:56:44;;;;;;;;;;;;;;;14.32;53.12;99909.09;5326702;32;32733;-65
2022/09/19 00:59:47;;;;;;;;;;;;;;;14.88;51.74;99908.19;5312005;32;45510;-68
2022/09/19 01:02:49;;;;;;;;;;;;;;;15.44;49.43;99915.97;5325398;32;33544;-69
2022/09/19 01:06:09;;;;;;;;;;;;;;;14.24;51.94;99920.13;5328300;32;33502;-64
2022/09/19 01:09:11;;;;;;;;;;;;;;;14.24;52.18;99919.28;5324160;32;33715;-64
2022/09/19 01:12:18;;;;;;;;;;;;;;;14.31;51.36;99918.81;5341797;32;33185;-64
2022/09/19 01:15:38;;;;;;;;;;;;;;;14.83;50.47;99922.66;5290681;32;44307;-64
2022/09/19 01:18:45;;;;;;;;;;;;;;;14.73;50.10;99926.81;5336485;32;33792;-64
2022/09/19 01:21:54;;;;;;;;;;;;;;;15.09;49.30;99927.09;5312885;32;47273;-64
2022/09/19 01:25:08;;;;;;;;;;;;;;;14.92;50.53;99932.63;5321860;32;33769;-68
2022/09/19 01:28:18;;;;;;;;;;;;;;;14.96;51.03;99931.50;5342053;32;34061;-65
2022/09/19 01:31:21;;;;;;;;;;;;;;;15.00;51.12;99930.34;5300828;33;45858;-67
2022/09/19 01:34:28;;;;;;;;;;;;;;;14.62;51.87;99920.44;5318494;33;33890;-67
2022/09/19 01:37:35;;;;;;;;;;;;;;;15.15;49.96;99923.22;5304616;33;33660;-65
2022/09/19 01:40:36;;;;;;;;;;;;;;;15.24;49.90;99916.47;5300126;33;33046;-65
2022/09/19 01:43:38;;;;;;;;;;;;;;;14.80;50.85;99917.53;5320178;33;32728;-65
2022/09/19 01:46:49;;;;;;;;;;;;;;;15.09;50.03;99927.09;5301336;33;33326;-64
2022/09/19 01:50:09;;;;;;;;;;;;;;;15.13;49.49;99922.44;5318502;33;44671;-65
2022/09/19 01:53:29;;;;;;;;;;;;;;;15.08;49.39;99917.47;5303505;33;33004;-64
2022/09/19 01:56:37;;;;;;;;;;;;;;;15.16;49.32;99922.25;5301868;32;33022;-68
2022/09/19 01:59:43;;;;;;;;;;;;;;;14.61;52.12;99918.69;5319469;32;32616;-64
2022/09/19 02:02:47;;;;;;;;;;;;;;;15.79;48.49;99910.16;5316537;32;44707;-64
2022/09/19 02:05:50;;;;;;;;;;;;;;;15.28;50.25;99907.38;5325903;32;33574;-65
2022/09/19 02:08:59;;;;;;;;;;;;;;;15.70;49.49;99912.47;5324883;32;33074;-65
2022/09/19 02:12:01;;;;;;;;;;;;;;;15.15;50.51;99923.22;5317213;32;33388;-64
2022/09/19 02:15:04;;;;;;;;;;;;;;;14.82;52.16;99927.09;5303461;32;34089;-67
2022/09/19 02:18:08;;;;;;;;;;;;;;;14.78;52.29;99935.31;5303934;32;33706;-65
2022/09/19 02:21:11;;;;;;;;;;;;;;;14.73;52.00;99927.66;5325408;32;33709;-65
2022/09/19 02:24:13;;;;;;;;;;;;;;;15.19;49.81;99930.00;5322046;32;32968;-65
2022/09/19 02:27:20;;;;;;;;;;;;;;;13.64;54.49;99932.59;5339276;32;44698;-67
2022/09/19 02:30:22;;;;;;;;;;;;;;;14.38;52.61;99934.28;5309001;32;33627;-66
2022/09/19 02:33:24;;;;;;;;;;;;;;;14.31;53.95;99928.53;5325002;32;34066;-64
2022/09/19 02:36:50;;;;;;;;;;;;;;;14.18;53.22;99933.72;5340117;32;33308;-67
2022/09/19 02:39:55;;;;;;;;;;;;;;;15.12;50.59;99950.72;5295839;32;45256;-68
2022/09/19 02:43:14;;;;;;;;;;;;;;;15.13;50.07;99947.16;5327027;32;33765;-69
2022/09/19 02:46:19;;;;;;;;;;;;;;;14.63;52.34;99942.44;5324960;32;44829;-67
2022/09/19 02:49:36;;;;;;;;;;;;;;;15.27;51.47;99919.75;5324853;32;33458;-64
2022/09/19 02:52:37;;;;;;;;;;;;;;;14.93;51.26;99938.78;5341525;32;32854;-68
2022/09/19 02:55:44;;;;;;;;;;;;;;;15.38;49.98;99943.72;5308764;32;33689;-64
2022/09/19 02:58:53;;;;;;;;;;;;;;;15.00;50.91;99940.91;5327091;32;44846;-63
2022/09/19 03:01:56;;;;;;;;;;;;;;;15.27;49.67;99929.50;5324636;32;34456;-65
2022/09/19 03:05:06;;;;;;;;;;;;;;;15.46;50.51;99922.06;5330104;32;33897;-67
2022/09/19 03:08:15;;;;;;;;;;;;;;;15.83;48.67;99924.87;5336535;32;33478;-67
2022/09/19 03:11:18;;;;;;;;;;;;;;;15.62;49.15;99928.03;5310154;32;46501;-64
2022/09/19 03:14:19;;;;;;;;;;;;;;;14.60;53.32;99922.28;5328932;32;33712;-67
2022/09/19 03:17:22;;;;;;;;;;;;;;;13.54;56.86;99914.66;5313099;32;34036;-65
2022/09/19 03:20:24;;;;;;;;;;;;;;;14.93;53.51;99899.94;5337697;32;33512;-67
2022/09/19 03:23:47;;;;;;;;;;;;;;;14.46;52.75;99905.56;5319852;32;34320;-69
2022/09/19 03:26:48;;;;;;;;;;;;;;;13.76;54.43;99900.16;5320496;32;44558;-67
2022/09/19 03:29:50;;;;;;;;;;;;;;;13.45;57.17;99901.13;5339337;32;33707;-68
2022/09/19 03:32:53;;;;;;;;;;;;;;;14.46;52.78;99898.53;5310822;32;34320;-65
2022/09/19 03:35:57;;;;;;;;;;;;;;;14.15;52.77;99903.97;5338604;32;33727;-67
2022/09/19 03:39:02;;;;;;;;;;;;;;;15.08;50.13;99901.59;5310550;32;33282;-67
2022/09/19 03:42:04;;;;;;;;;;;;;;;13.99;53.19;99904.94;5330809;32;33554;-66
2022/09/19 03:45:06;;;;;;;;;;;;;;;13.91;53.66;99901.03;5333455;32;34052;-68
2022/09/19 03:48:08;;;;;;;;;;;;;;;13.80;55.91;99907.81;5308374;32;33609;-68
2022/09/19 03:51:10;;;;;;;;;;;;;;;13.95;55.73;99907.84;5339247;32;32899;-68
2022/09/19 03:54:12;;;;;;;;;;;;;;;13.95;55.01;99911.31;5308869;32;33977;-68
2022/09/19 03:57:14;;;;;;;;;;;;;;;13.85;57.16;99920.75;5326405;32;45269;-65
2022/09/19 04:00:16;;;;;;;;;;;;;;;15.14;52.25;99927.66;5323391;32;36858;-63
2022/09/19 04:03:23;;;;;;;;;;;;;;;14.60;54.05;99929.38;5330912;32;33844;-66
2022/09/19 04:06:25;;;;;;;;;;;;;;;14.35;55.46;99943.25;5335583;32;34333;-64
2022/09/19 04:09:27;;;;;;;;;;;;;;;13.89;57.17;99930.19;5322500;32;33238;-67
2022/09/19 04:12:29;;;;;;;;;;;;;;;13.69;58.81;99944.59;5339612;32;33911;-65
2022/09/19 04:15:31;;;;;;;;;;;;;;;14.10;56.80;99943.88;5303350;32;34352;-64
2022/09/19 04:18:34;;;;;;;;;;;;;;;14.25;56.25;99942.13;5335661;32;32020;-65
2022/09/19 04:21:36;;;;;;;;;;;;;;;13.79;57.90;99951.03;5322543;32;33038;-68
2022/09/19 04:24:39;;;;;;;;;;;;;;;14.39;56.83;99950.06;5307741;32;32953;-68
2022/09/19 04:27:41;;;;;;;;;;;;;;;13.68;59.66;99945.53;5323519;32;33668;-64
2022/09/19 04:30:43;;;;;;;;;;;;;;;13.97;59.27;99943.78;5308411;32;33507;-67
2022/09/19 04:33:44;;;;;;;;;;;;;;;14.38;57.68;99948.34;5337621;32;44526;-67
2022/09/19 04:36:49;;;;;;;;;;;;;;;14.30;56.85;99938.25;5310963;32;34478;-64
2022/09/19 04:39:50;;;;;;;;;;;;;;;13.91;60.66;99938.00;5336042;32;33057;-64
2022/09/19 04:42:52;;;;;;;;;;;;;;;13.65;60.67;99940.41;5322611;32;32388;-65
2022/09/19 04:45:54;;;;;;;;;;;;;;;13.51;60.22;99938.59;5321843;32;33878;-67
2022/09/19 04:48:56;;;;;;;;;;;;;;;14.06;58.81;99922.09;5338024;32;34716;-67
2022/09/19 04:51:58;;;;;;;;;;;;;;;13.31;62.58;99943.31;5323023;32;34039;-65
2022/09/19 04:55:00;;;;;;;;;;;;;;;13.44;59.94;99942.53;5338522;32;33779;-64
2022/09/19 04:58:02;;;;;;;;;;;;;;;14.14;57.96;99934.00;5326408;32;34030;-64
2022/09/19 05:01:04;;;;;;;;;;;;;;;14.00;57.39;99933.03;5340437;32;34043;-64
2022/09/19 05:04:06;;;;;;;;;;;;;;;14.30;57.37;99934.78;5325296;32;34186;-67
2022/09/19 05:07:08;;;;;;;;;;;;;;;14.34;55.77;99942.41;5312714;32;33096;-67
2022/09/19 05:10:10;;;;;;;;;;;;;;;14.68;55.53;99944.75;5338632;32;32952;-64
2022/09/19 05:13:12;;;;;;;;;;;;;;;14.94;54.54;99943.97;5323418;32;32924;-68
2022/09/19 05:16:15;;;;;;;;;;;;;;;15.01;54.28;99950.59;5315925;32;44779;-64
2022/09/19 05:19:21;;;;;;;;;;;;;;;15.28;53.51;99960.31;5324309;32;33030;-67
2022/09/19 05:22:23;;;;;;;;;;;;;;;14.57;55.10;99964.81;5337687;32;33685;-64
2022/09/19 05:25:27;;;;;;;;;;;;;;;14.76;54.81;99972.44;5323447;32;34546;-69
2022/09/19 05:28:28;;;;;;;;;;;;;;;14.03;57.91;99982.19;5310445;32;33926;-66
2022/09/19 05:31:30;;;;;;;;;;;;;;;13.69;60.55;99991.28;5327147;32;33429;-68
2022/09/19 05:34:32;;;;;;;;;;;;;;;14.16;58.19;99985.81;5322772;32;35883;-64
2022/09/19 05:37:38;;;;;;;;;;;;;;;14.26;58.74;100000.19;5340746;32;33193;-65
2022/09/19 05:40:40;;;;;;;;;;;;;;;12.92;64.68;99992.94;5321468;32;33315;-64
2022/09/19 05:43:42;;;;;;;;;;;;;;;13.80;62.31;100000.28;5335465;32;32970;-69
2022/09/19 05:49:47;;;;;;;;;;;;;;;13.09;63.89;100004.34;5313896;33;33558;-90
2022/09/19 05:56:14;;;;;;;;;;;;;;;13.60;62.34;99997.09;5311108;33;32955;-94
2022/09/19 05:59:19;;;;;;;;;;;;;;;13.43;62.57;99998.06;5294590;33;31445;-94
2022/09/19 06:02:27;;;;;;;;;;;;;;;13.17;63.73;99997.69;5284192;33;32698;-93
2022/09/19 06:05:33;;;;;;;;;;;;;;;13.20;63.98;99994.03;5291612;33;32803;-95
2022/09/19 06:08:36;;;;;;;;;;;;;;;12.83;65.79;100017.19;5304323;33;32385;-95
2022/09/19 06:11:40;;;;;;;;;;;;;;;12.48;67.10;100013.78;5323848;33;32526;-91
2022/09/19 06:14:43;;;;;;;;;;;;;;;12.76;65.76;100025.50;5300179;33;34417;-93
2022/09/19 06:17:48;;;;;;;;;;;;;;;12.27;67.72;100033.34;5341585;27;32889;-69
2022/09/19 06:20:49;;;;;;;;;;;;;;;12.90;66.19;100031.72;5314988;32;33206;-64
2022/09/19 06:23:51;;;;;;;;;;;;;;;12.04;68.91;100016.94;5317919;32;32838;-70
2022/09/19 06:26:53;;;;;;;;;;;;;;;12.55;67.11;100015.16;5327650;32;44344;-69
2022/09/19 06:29:55;;;;;;;;;;;;;;;12.53;68.06;100022.28;5298560;32;31986;-67
2022/09/19 06:32:57;;;;;;;;;;;;;;;12.98;66.80;100023.41;5339519;32;33450;-62
2022/09/19 06:35:59;;;;;;;;;;;;;;;12.63;68.00;100023.53;5320737;32;33758;-69
2022/09/19 06:39:01;;;;;;;;;;;;;;;12.38;68.34;100025.75;5333127;32;33055;-62
2022/09/19 06:42:03;;;;;;;;;;;;;;;12.66;68.24;100030.41;5314756;32;33567;-70
2022/09/19 06:45:06;;;;;;;;;;;;;;;12.26;69.17;100023.75;5304064;32;34119;-62
2022/09/19 06:48:08;;;;;;;;;;;;;;;12.92;67.87;100035.12;5325603;32;33102;-64
2022/09/19 06:51:13;;;;;;;;;;;;;;;12.69;69.00;100027.63;5314114;32;32882;-61
2022/09/19 06:54:15;;;;;;;;;;;;;;;13.35;66.18;100043.38;5339294;32;33090;-62
2022/09/19 06:57:17;;;;;;;;;;;;;;;12.99;68.20;100039.12;5329099;32;34842;-67
2022/09/19 07:00:19;;;;;;;;;;;;;;;12.59;66.82;100050.13;5327163;32;35272;-62
2022/09/19 07:03:21;;;;;;;;;;;;;;;12.61;68.25;100043.81;5321557;32;34650;-63
2022/09/19 07:06:23;;;;;;;;;;;;;;;11.83;71.11;100054.88;5315901;32;44647;-68
2022/09/19 07:09:25;;;;;;;;;;;;;;;12.13;69.45;100037.56;5329454;32;34728;-72
2022/09/19 07:12:27;;;;;;;;;;;;;;;11.93;70.88;100061.41;5324470;32;33069;-71
2022/09/19 07:15:29;;;;;;;;;;;;;;;12.55;68.08;100048.56;5336144;32;33615;-69
2022/09/19 07:18:31;;;;;;;;;;;;;;;12.62;67.77;100048.19;5319806;32;32973;-68
2022/09/19 07:21:33;;;;;;;;;;;;;;;12.36;68.65;100060.06;5328318;32;32893;-69
2022/09/19 07:24:35;;;;;;;;;;;;;;;12.14;70.85;100068.22;5326743;32;31642;-69
2022/09/19 07:27:37;;;;;;;;;;;;;;;12.08;69.74;100078.22;5324241;32;33068;-62
2022/09/19 07:30:39;;;;;;;;;;;;;;;12.43;68.15;100060.63;5331894;32;32991;-70
2022/09/19 07:33:41;;;;;;;;;;;;;;;12.54;66.39;100046.87;5320271;32;32924;-65
2022/09/19 07:36:42;;;;;;;;;;;;;;;12.65;66.31;100052.44;5334941;32;32685;-63
2022/09/19 07:39:45;;;;;;;;;;;;;;;12.74;65.96;100060.69;5321278;32;34466;-70
2022/09/19 07:43:03;;;;;;;;;;;;;;;12.65;66.14;100044.53;5306031;32;34659;-63
2022/09/19 07:46:05;;;;;;;;;;;;;;;13.53;63.44;100050.25;5325237;32;34732;-64
2022/09/19 07:49:07;;;;;;;;;;;;;;;13.97;61.24;100048.62;5312345;32;33928;-67
2022/09/19 07:52:13;;;;;;;;;;;;;;;14.79;59.34;100053.41;5331509;32;32812;-64
2022/09/19 07:55:15;;;;;;;;;;;;;;;14.13;59.67;100061.78;5316565;32;33812;-63
2022/09/19 07:58:17;;;;;;;;;;;;;;;16.45;54.09;100039.88;5337532;32;34697;-67
2022/09/19 08:01:19;;;;;;;;;;;;;;;17.42;50.30;100039.22;5325290;32;35418;-62
2022/09/19 08:04:21;;;;;;;;;;;;;;;15.45;55.63;100058.03;5319712;32;32860;-68
2022/09/19 08:07:23;;;;;;;;;;;;;;;15.59;54.26;100065.97;5339262;32;45060;-69
2022/09/19 08:10:25;;;;;;;;;;;;;;;15.34;56.29;100049.94;5316922;32;33887;-65
2022/09/19 08:13:29;;;;;;;;;;;;;;;14.69;56.89;100068.16;5321255;32;32982;-70
2022/09/19 08:16:31;;;;;;;;;;;;;;;15.07;55.48;100052.53;5319039;32;34431;-65
2022/09/19 08:19:33;;;;;;;;;;;;;;;14.63;54.06;100058.81;5331288;32;32868;-70
2022/09/19 08:22:35;;;;;;;;;;;;;;;14.84;54.50;100057.47;5322663;32;34322;-70
2022/09/19 08:25:41;;;;;;;;;;;;;;;15.31;52.27;100066.03;5315245;32;34462;-61
2022/09/19 08:28:43;;;;;;;;;;;;;;;15.08;53.01;100076.28;5337156;32;34391;-63
2022/09/19 08:31:45;;;;;;;;;;;;;;;14.74;53.29;100071.34;5319618;32;34401;-69
2022/09/19 08:34:47;;;;;;;;;;;;;;;14.88;51.35;100087.25;5331914;32;33628;-62
2022/09/19 08:37:55;;;;;;;;;;;;;;;14.04;53.79;100089.62;5328634;32;34312;-61
2022/09/19 08:41:04;;;;;;;;;;;;;;;13.86;54.81;100090.69;5338834;32;44584;-68
2022/09/19 08:44:10;;;;;;;;;;;;;;;14.24;52.17;100093.75;5310087;32;34156;-64
2022/09/19 08:47:13;;;;;;;;;;;;;;;14.72;52.98;100105.00;5323585;32;33015;-64
2022/09/19 08:50:22;;;;;;;;;;;;;;;14.55;51.01;100101.56;5330950;32;32870;-64
2022/09/19 08:53:27;;;;;;;;;;;;;;;14.53;51.69;100107.88;5312193;32;44762;-65
2022/09/19 08:56:29;;;;;;;;;;;;;;;14.38;52.37;100117.56;5324705;32;33238;-66
2022/09/19 08:59:37;;;;;;;;;;;;;;;14.44;52.35;100122.50;5319087;32;32947;-67
2022/09/19 09:02:52;;;;;;;;;;;;;;;15.49;47.37;100116.97;5324542;32;34096;-67
2022/09/19 09:06:12;;;;;;;;;;;;;;;17.05;43.85;100118.03;5333339;32;34238;-67
2022/09/19 09:09:19;;;;;;;;;;;;;;;14.70;48.45;100122.75;5324042;32;34479;-64
2022/09/19 09:12:21;;;;;;;;;;;;;;;15.64;46.92;100116.84;5333011;32;34517;-67
2022/09/19 09:15:38;;;;;;;;;;;;;;;14.00;50.73;100133.84;5326194;32;44279;-64
2022/09/19 09:19:30;;;;;;;;;;;;;;;15.30;48.29;100149.06;5315887;32;33346;-63
2022/09/19 09:22:38;;;;;;;;;;;;;;;14.83;48.63;100139.59;5297275;33;34961;-69
2022/09/19 09:25:41;;;;;;;;;;;;;;;14.42;47.50;100140.22;5272692;33;32929;-63
2022/09/19 09:28:49;;;;;;;;;;;;;;;14.33;49.17;100138.97;5331909;32;32824;-64
2022/09/19 09:31:56;;;;;;;;;;;;;;;14.49;48.76;100132.81;5320943;32;32117;-63
2022/09/19 09:35:06;;;;;;;;;;;;;;;15.76;45.48;100125.81;5319546;32;44692;-63
2022/09/19 09:38:20;;;;;;;;;;;;;;;15.50;45.72;100135.41;5339173;32;32968;-68
2022/09/19 09:41:49;;;;;;;;;;;;;;;15.30;45.90;100133.16;5318306;32;44971;-67
2022/09/19 09:45:05;;;;;;;;;;;;;;;15.57;45.14;100141.16;5306806;32;34563;-64
2022/09/19 09:48:27;;;;;;;;;;;;;;;15.31;44.71;100148.94;5331795;32;33155;-67
2022/09/19 09:51:39;;;;;;;;;;;;;;;15.40;45.31;100132.50;5321344;32;43341;-68
2022/09/19 09:58:20;;;;;;;;;;;;;;;15.21;45.66;100131.94;5313333;32;31924;-66
2022/09/19 10:05:08;;;;;;;;;;;;;;;15.39;46.33;100136.09;5333534;32;32728;-67
2022/09/19 10:08:15;;;;;;;;;;;;;;;16.55;43.16;100134.75;5318142;32;33667;-69
2022/09/19 10:11:18;;;;;;;;;;;;;;;15.10;45.25;100132.59;5321423;32;36450;-64
2022/09/19 10:14:40;;;;;;;;;;;;;;;13.96;48.17;100131.47;5324384;32;33556;-63
2022/09/19 10:17:43;;;;;;;;;;;;;;;14.08;48.28;100143.97;5323693;32;34418;-68
2022/09/19 10:20:49;;;;;;;;;;;;;;;14.09;48.78;100157.09;5332667;32;33969;-63
2022/09/19 10:23:52;;;;;;;;;;;;;;;13.36;51.52;100157.72;5322906;32;34374;-71
2022/09/19 10:27:00;;;;;;;;;;;;;;;14.29;51.43;100155.94;5330122;32;44825;-69
2022/09/19 10:30:08;;;;;;;;;;;;;;;13.49;53.98;100149.03;5326147;32;32969;-61
2022/09/19 10:33:38;;;;;;;;;;;;;;;14.43;52.48;100152.53;5319142;32;34170;-70
2022/09/19 10:36:44;;;;;;;;;;;;;;;15.35;51.61;100144.31;5336271;32;34427;-64
2022/09/19 10:39:48;;;;;;;;;;;;;;;14.91;52.91;100155.84;5306676;32;32937;-71
2022/09/19 10:42:50;;;;;;;;;;;;;;;14.97;50.68;100139.59;5324380;32;34299;-64
2022/09/19 10:45:52;;;;;;;;;;;;;;;15.36;48.89;100143.38;5320608;32;33316;-64
2022/09/19 10:48:56;;;;;;;;;;;;;;;14.92;50.45;100132.88;5323502;32;44498;-72
2022/09/19 10:51:59;;;;;;;;;;;;;;;15.86;49.22;100136.69;5333761;32;33146;-62
2022/09/19 10:55:02;;;;;;;;;;;;;;;15.21;51.31;100124.00;5313309;32;34116;-71
2022/09/19 10:58:28;;;;;;;;;;;;;;;16.50;47.24;100133.28;5335670;32;32727;-63
2022/09/19 11:01:30;;;;;;;;;;;;;;;16.16;46.00;100137.31;5327165;32;45043;-63
2022/09/19 11:04:32;;;;;;;;;;;;;;;17.39;42.98;100115.63;5320628;32;33309;-72
2022/09/19 11:07:54;;;;;;;;;;;;;;;16.89;42.98;100123.56;5335560;32;33632;-64
2022/09/19 11:10:56;;;;;;;;;;;;;;;16.05;43.71;100126.59;5319096;32;44689;-71
2022/09/19 11:14:05;;;;;;;;;;;;;;;15.41;48.96;100141.28;5335996;32;32950;-71
2022/09/19 11:17:17;;;;;;;;;;;;;;;15.79;51.42;100149.47;5325980;32;34321;-70
2022/09/19 11:20:19;;;;;;;;;;;;;;;14.59;55.80;100171.00;5324579;32;33563;-63
2022/09/19 11:23:21;;;;;;;;;;;;;;;14.17;56.47;100171.66;5320906;32;33053;-64
2022/09/19 11:26:28;;;;;;;;;;;;;;;13.87;56.67;100192.75;5323471;32;44522;-63
2022/09/19 11:29:34;;;;;;;;;;;;;;;13.81;58.87;100191.31;5338003;32;33080;-72
2022/09/19 11:32:44;;;;;;;;;;;;;;;13.12;60.69;100191.50;5326987;32;32260;-71
2022/09/19 11:36:03;;;;;;;;;;;;;;;12.72;62.81;100196.22;5337278;32;44556;-73
2022/09/19 11:39:06;;;;;;;;;;;;;;;13.03;61.55;100200.75;5337837;32;32980;-62
2022/09/19 11:42:30;;;;;;;;;;;;;;;13.20;60.53;100191.94;5303422;32;44943;-62
2022/09/19 11:45:36;;;;;;;;;;;;;;;13.65;59.31;100185.16;5330599;32;34438;-67
2022/09/19 11:48:40;;;;;;;;;;;;;;;13.19;60.06;100204.28;5324799;32;34131;-62
2022/09/19 11:51:51;;;;;;;;;;;;;;;13.62;61.06;100196.75;5334395;32;33862;-62
2022/09/19 11:55:11;;;;;;;;;;;;;;;13.85;59.56;100205.19;5326246;32;44419;-67
2022/09/19 11:58:13;;;;;;;;;;;;;;;13.60;60.00;100203.06;5325750;32;32997;-63
2022/09/19 12:01:36;;;;;;;;;;;;;;;14.41;57.55;100191.41;5328351;32;33064;-63
2022/09/19 12:04:42;;;;;;;;;;;;;;;13.94;56.97;100194.13;5323740;32;32200;-63
2022/09/19 12:07:48;;;;;;;;;;;;;;;14.25;57.15;100190.59;5333143;32;32902;-74
2022/09/19 12:10:55;;;;;;;;;;;;;;;14.43;55.79;100194.81;5330322;32;32906;-71
2022/09/19 12:13:59;;;;;;;;;;;;;;;13.96;56.28;100210.72;5322853;32;44651;-73
2022/09/19 12:17:22;;;;;;;;;;;;;;;13.39;54.80;100212.97;5337002;32;32858;-71
2022/09/19 12:20:35;;;;;;;;;;;;;;;13.40;55.47;100214.69;5326355;32;43644;-63
2022/09/19 12:27:12;;;;;;;;;;;;;;;12.77;57.96;100232.91;5336001;32;33064;-66
2022/09/19 12:30:14;;;;;;;;;;;;;;;12.27;58.76;100228.34;5323195;32;33033;-71
2022/09/19 12:33:16;;;;;;;;;;;;;;;12.91;57.38;100230.41;5328824;32;34142;-64
2022/09/19 12:36:32;;;;;;;;;;;;;;;12.91;58.72;100231.25;5320301;32;34166;-65
2022/09/19 12:39:46;;;;;;;;;;;;;;;12.89;58.14;100222.59;5334701;32;32881;-64
2022/09/19 12:43:06;;;;;;;;;;;;;;;13.42;57.66;100224.22;5314284;32;33029;-71
2022/09/19 12:46:27;;;;;;;;;;;;;;;13.42;56.33;100221.59;5319918;32;32904;-69
2022/09/19 12:49:36;;;;;;;;;;;;;;;14.31;53.86;100219.31;5341548;32;46432;-68
2022/09/19 12:52:41;;;;;;;;;;;;;;;14.47;54.18;100217.53;5304788;32;33526;-63
2022/09/19 12:55:59;;;;;;;;;;;;;;;15.01;52.19;100215.22;5323011;32;33784;-66
2022/09/19 12:59:02;;;;;;;;;;;;;;;15.21;53.10;100218.47;5331635;32;44507;-62
2022/09/19 13:02:18;;;;;;;;;;;;;;;15.48;49.95;100206.16;5322950;32;34443;-66
2022/09/19 13:05:33;;;;;;;;;;;;;;;15.31;50.35;100198.41;5337505;32;34512;-73
2022/09/19 13:08:50;;;;;;;;;;;;;;;16.04;48.88;100199.13;5325861;32;33076;-64
2022/09/19 13:11:53;;;;;;;;;;;;;;;17.00;45.36;100192.69;5322558;32;34113;-64
2022/09/19 13:15:02;;;;;;;;;;;;;;;17.13;45.50;100198.00;5330299;32;46557;-73
2022/09/19 13:24:56;;;;;;;;;;;;;;;16.71;45.94;100189.37;5323158;32;46845;-68
2022/09/19 13:28:17;;;;;;;;;;;;;;;16.79;45.29;100176.41;5315365;32;34442;-68
2022/09/19 13:31:22;;;;;;;;;;;;;;;15.80;47.14;100182.13;5329496;32;33698;-69
2022/09/19 13:34:39;;;;;;;;;;;;;;;15.37;49.64;100184.78;5323570;32;44460;-70
2022/09/19 13:37:45;;;;;;;;;;;;;;;16.13;47.71;100192.34;5334932;32;32888;-69
2022/09/19 13:40:54;;;;;;;;;;;;;;;14.73;48.41;100178.12;5320031;32;33012;-72
2022/09/19 13:44:23;;;;;;;;;;;;;;;14.71;49.13;100188.78;5296273;32;44632;-64
2022/09/19 13:47:26;;;;;;;;;;;;;;;15.43;47.35;100185.25;5331716;32;44462;-64
2022/09/19 13:50:39;;;;;;;;;;;;;;;15.60;47.25;100175.41;5324746;32;32893;-65
2022/09/19 13:53:42;;;;;;;;;;;;;;;15.51;47.52;100194.53;5327574;32;32938;-65
2022/09/19 13:56:44;;;;;;;;;;;;;;;14.78;49.45;100194.56;5324985;32;33075;-72
2022/09/19 13:59:58;;;;;;;;;;;;;;;15.60;47.49;100184.22;5310750;32;34626;-67
2022/09/19 14:03:01;;;;;;;;;;;;;;;14.99;48.12;100198.56;5326751;32;44846;-67
2022/09/19 14:06:20;;;;;;;;;;;;;;;15.13;47.62;100189.78;5312744;32;32807;-71
2022/09/19 14:09:34;;;;;;;;;;;;;;;14.03;51.24;100202.38;5333831;32;44254;-65
2022/09/19 14:12:57;;;;;;;;;;;;;;;14.24;50.34;100200.31;5324135;32;45096;-67
2022/09/19 14:15:59;;;;;;;;;;;;;;;14.26;51.39;100208.16;5319897;32;33053;-69
2022/09/19 14:19:01;;;;;;;;;;;;;;;14.83;50.01;100208.38;5332958;32;32995;-71
2022/09/19 14:22:03;;;;;;;;;;;;;;;14.54;51.25;100210.94;5320410;32;33023;-71
2022/09/19 14:25:13;;;;;;;;;;;;;;;14.55;51.85;100222.34;5333082;32;33587;-66
2022/09/19 14:28:24;;;;;;;;;;;;;;;14.52;52.74;100226.03;5324093;32;33376;-72
2022/09/19 14:31:41;;;;;;;;;;;;;;;14.77;52.65;100245.78;5314788;32;44425;-72
2022/09/19 14:34:47;;;;;;;;;;;;;;;13.22;59.83;100233.19;5337098;32;33050;-70
2022/09/19 14:38:07;;;;;;;;;;;;;;;13.27;60.92;100211.84;5320532;32;33138;-72
2022/09/19 14:41:18;;;;;;;;;;;;;;;13.44;60.93;100209.16;5331635;32;33658;-68
2022/09/19 14:44:20;;;;;;;;;;;;;;;14.17;59.60;100196.31;5306042;32;32790;-67
2022/09/19 14:47:24;;;;;;;;;;;;;;;14.50;59.14;100201.50;5319396;32;43276;-65
2022/09/19 14:50:27;;;;;;;;;;;;;;;14.40;58.87;100184.41;5334320;32;33560;-71
2022/09/19 14:53:31;;;;;;;;;;;;;;;14.60;58.93;100186.78;5323634;32;34117;-68
2022/09/19 14:56:33;;;;;;;;;;;;;;;14.78;58.39;100195.41;5336058;32;33201;-73
2022/09/19 14:59:35;;;;;;;;;;;;;;;15.35;54.71;100186.69;5324024;32;34230;-65
2022/09/19 15:02:39;;;;;;;;;;;;;;;15.57;55.10;100186.19;5332139;32;33226;-67
2022/09/19 15:05:42;;;;;;;;;;;;;;;15.11;57.54;100181.94;5325892;32;34377;-65
2022/09/19 15:08:48;;;;;;;;;;;;;;;15.65;54.02;100179.50;5320875;32;32177;-64
2022/09/19 15:11:50;;;;;;;;;;;;;;;15.96;52.77;100185.47;5329269;32;34349;-66
2022/09/19 15:14:55;;;;;;;;;;;;;;;16.31;53.30;100190.31;5321155;32;43112;-67
2022/09/19 15:17:58;;;;;;;;;;;;;;;16.23;53.19;100189.00;5332570;32;33651;-65
2022/09/19 15:21:03;;;;;;;;;;;;;;;15.34;55.80;100185.84;5317694;32;33048;-65
2022/09/19 15:24:06;;;;;;;;;;;;;;;15.99;54.69;100185.28;5322752;32;34430;-66
2022/09/19 15:27:08;;;;;;;;;;;;;;;16.01;51.79;100182.53;5330768;32;34027;-64
2022/09/19 15:30:17;;;;;;;;;;;;;;;15.09;53.83;100194.44;5319859;32;32951;-64
2022/09/19 15:33:19;;;;;;;;;;;;;;;15.82;50.81;100183.72;5334456;32;33613;-68
2022/09/19 15:36:24;;;;;;;;;;;;;;;14.96;53.61;100179.41;5318999;32;33536;-64
2022/09/19 15:39:25;;;;;;;;;;;;;;;15.60;51.92;100173.63;5334758;32;44430;-65
2022/09/19 15:42:27;;;;;;;;;;;;;;;14.92;52.09;100197.25;5313516;32;31959;-63
2022/09/19 15:45:32;;;;;;;;;;;;;;;14.73;53.51;100200.13;5307321;32;33133;-67
2022/09/19 15:48:44;;;;;;;;;;;;;;;15.27;50.27;100194.25;5323042;32;32026;-64
2022/09/19 15:51:56;;;;;;;;;;;;;;;14.96;49.68;100196.13;5323100;32;34772;-64
2022/09/19 15:54:58;;;;;;;;;;;;;;;14.47;52.03;100200.81;5332414;32;44388;-73
2022/09/19 15:58:00;;;;;;;;;;;;;;;14.46;51.32;100197.31;5315739;32;33058;-65
2022/09/19 16:01:20;;;;;;;;;;;;;;;14.99;49.80;100211.81;5318621;32;33469;-71
2022/09/19 16:04:25;;;;;;;;;;;;;;;14.88;51.35;100212.47;5322985;32;35321;-66
2022/09/19 16:10:51;;;;;;;;;;;;;;;14.74;49.48;100215.06;5324393;32;34196;-72
2022/09/19 16:14:15;;;;;;;;;;;;;;;14.17;50.40;100217.47;5303744;32;44746;-72
2022/09/19 16:17:22;;;;;;;;;;;;;;;14.49;50.24;100213.03;5317297;32;34319;-71
2022/09/19 16:20:30;;;;;;;;;;;;;;;14.56;50.32;100218.81;5330156;32;44661;-65
2022/09/19 16:23:35;;;;;;;;;;;;;;;14.03;51.96;100212.94;5316693;32;33537;-72
2022/09/19 16:26:37;;;;;;;;;;;;;;;14.90;49.55;100222.94;5334544;32;33667;-66
2022/09/19 16:29:43;;;;;;;;;;;;;;;14.32;50.63;100226.31;5322133;32;33695;-71
2022/09/19 16:32:45;;;;;;;;;;;;;;;14.65;49.11;100234.13;5329056;32;33890;-65